Time;durP1;ratioP1;P1;durP2;ratioP2;P2;SDS_P1;SDS_P2;PMS_P1;PMS_P2;Temp;Humidity;BMP_temperature;BMP_pressure;BME280_temperature;BME280_humidity;BME280_pressure;Samples;Min_cycle;Max_cycle;Signal;HPM_P1;HPM_P2
2023/06/20 00:01:17;;;;;;;20.10;12.55;;;;;;;;;;5151029;27;20031;-68
2023/06/20 00:03:43;;;;;;;17.30;12.70;;;;;;;;;;5146290;27;20042;-68
2023/06/20 00:06:09;;;;;;;20.88;13.27;;;;;;;;;;5151870;27;20427;-68
2023/06/20 00:08:35;;;;;;;19.10;12.73;;;;;;;;;;5129557;27;20111;-68
2023/06/20 00:11:01;;;;;;;18.90;12.80;;;;;;;;;;5114733;27;20043;-68
2023/06/20 00:13:28;;;;;;;18.23;13.13;;;;;;;;;;5138321;27;20103;-68
2023/06/20 00:15:57;;;;;;;22.27;12.70;;;;;;;;;;5131154;27;20043;-68
2023/06/20 00:18:24;;;;;;;19.17;13.23;;;;;;;;;;5112972;27;20054;-68
2023/06/20 00:20:53;;;;;;;23.83;13.75;;;;;;;;;;5131305;27;20378;-68
2023/06/20 00:23:21;;;;;;;19.17;12.50;;;;;;;;;;5136885;27;20050;-67
2023/06/20 00:25:47;;;;;;;19.00;12.77;;;;;;;;;;5112460;27;20051;-68
2023/06/20 00:28:16;;;;;;;18.20;13.27;;;;;;;;;;5130649;27;20516;-68
2023/06/20 00:30:42;;;;;;;18.20;13.25;;;;;;;;;;5123231;27;20061;-68
2023/06/20 00:33:08;;;;;;;19.73;13.80;;;;;;;;;;5130887;27;20031;-68
2023/06/20 00:35:34;;;;;;;21.02;14.07;;;;;;;;;;5112258;27;20047;-68
2023/06/20 00:38:01;;;;;;;19.20;13.27;;;;;;;;;;5110582;27;20073;-68
2023/06/20 00:40:27;;;;;;;20.23;13.15;;;;;;;;;;5109891;27;20047;-68
2023/06/20 00:42:53;;;;;;;17.63;13.02;;;;;;;;;;5133873;27;21547;-67
2023/06/20 00:45:30;;;;;;;17.92;12.82;;;;;;;;;;5112034;27;20046;-68
2023/06/20 00:48:00;;;;;;;20.10;14.85;;;;;;;;;;5130202;27;20043;-68
2023/06/20 00:50:27;;;;;;;20.52;14.55;;;;;;;;;;5134052;27;20074;-68
2023/06/20 00:53:00;;;;;;;19.75;14.23;;;;;;;;;;5121703;27;20501;-67
2023/06/20 00:55:27;;;;;;;20.40;14.00;;;;;;;;;;5147260;27;20126;-68
2023/06/20 00:57:54;;;;;;;20.52;15.50;;;;;;;;;;5124712;27;20051;-67
2023/06/20 01:00:21;;;;;;;25.58;15.60;;;;;;;;;;5134789;27;20549;-67
2023/06/20 01:02:47;;;;;;;21.02;14.90;;;;;;;;;;5146606;27;20138;-68
2023/06/20 01:05:14;;;;;;;23.42;15.52;;;;;;;;;;5145963;27;20073;-68
2023/06/20 01:07:40;;;;;;;21.42;15.70;;;;;;;;;;5150756;27;20031;-68
2023/06/20 01:10:09;;;;;;;18.88;14.23;;;;;;;;;;5147560;27;20133;-68
2023/06/20 01:12:35;;;;;;;18.58;14.82;;;;;;;;;;5135411;27;20552;-68
2023/06/20 01:15:14;;;;;;;23.50;13.70;;;;;;;;;;5153636;27;20590;-68
2023/06/20 01:17:53;;;;;;;20.05;14.20;;;;;;;;;;5130524;27;20047;-68
2023/06/20 01:20:32;;;;;;;19.05;14.65;;;;;;;;;;5164537;27;20121;-68
2023/06/20 01:23:02;;;;;;;22.08;15.88;;;;;;;;;;5132053;27;20042;-68
2023/06/20 01:25:34;;;;;;;18.55;13.95;;;;;;;;;;5149472;27;20133;-68
2023/06/20 01:28:06;;;;;;;19.45;14.73;;;;;;;;;;5123288;27;20130;-68
2023/06/20 01:30:49;;;;;;;18.95;14.85;;;;;;;;;;5116605;27;20036;-68
2023/06/20 01:33:16;;;;;;;21.60;15.15;;;;;;;;;;5128732;27;20089;-68
2023/06/20 01:35:44;;;;;;;22.33;15.50;;;;;;;;;;5125978;27;20183;-68
2023/06/20 01:38:12;;;;;;;20.15;13.60;;;;;;;;;;5121169;27;20045;-68
2023/06/20 01:40:39;;;;;;;21.55;15.07;;;;;;;;;;5123572;27;20108;-68
2023/06/20 01:43:07;;;;;;;24.73;15.73;;;;;;;;;;5124802;27;20454;-68
2023/06/20 01:45:36;;;;;;;18.60;13.18;;;;;;;;;;5130395;27;20039;-68
2023/06/20 01:48:04;;;;;;;24.17;15.32;;;;;;;;;;5124231;27;20035;-68
2023/06/20 01:50:30;;;;;;;20.60;14.55;;;;;;;;;;5127045;27;20092;-68
2023/06/20 01:52:57;;;;;;;20.55;14.85;;;;;;;;;;5119009;27;20071;-68
2023/06/20 01:55:24;;;;;;;22.00;14.27;;;;;;;;;;5124678;27;20081;-68
2023/06/20 01:57:53;;;;;;;24.13;15.55;;;;;;;;;;5119258;27;20035;-68
2023/06/20 02:00:20;;;;;;;19.48;14.82;;;;;;;;;;5110487;27;20044;-68
2023/06/20 02:02:46;;;;;;;21.90;14.35;;;;;;;;;;5110989;27;20093;-68
2023/06/20 02:05:14;;;;;;;26.33;16.17;;;;;;;;;;5108483;27;20169;-68
2023/06/20 02:07:41;;;;;;;22.33;14.40;;;;;;;;;;5112609;27;20051;-68
2023/06/20 02:10:08;;;;;;;22.85;15.65;;;;;;;;;;5112070;27;20095;-68
2023/06/20 02:12:35;;;;;;;22.38;15.45;;;;;;;;;;5114210;27;20039;-68
2023/06/20 02:15:01;;;;;;;21.25;16.10;;;;;;;;;;5123128;27;20058;-68
2023/06/20 02:17:28;;;;;;;22.98;16.80;;;;;;;;;;5115776;27;20084;-68
2023/06/20 02:19:54;;;;;;;22.55;15.80;;;;;;;;;;5108955;27;20048;-68
2023/06/20 02:22:24;;;;;;;24.02;16.63;;;;;;;;;;5107556;27;20047;-68
2023/06/20 02:24:51;;;;;;;30.52;18.42;;;;;;;;;;5109233;27;20118;-68
2023/06/20 02:27:18;;;;;;;24.42;16.85;;;;;;;;;;5112887;27;20125;-68
2023/06/20 02:29:45;;;;;;;21.70;14.80;;;;;;;;;;5136808;27;20065;-68
2023/06/20 02:32:13;;;;;;;25.65;15.63;;;;;;;;;;5131874;27;20042;-68
2023/06/20 02:34:41;;;;;;;23.25;14.43;;;;;;;;;;5135642;27;20046;-68
2023/06/20 02:37:08;;;;;;;20.08;13.43;;;;;;;;;;5114002;27;20521;-68
2023/06/20 02:39:34;;;;;;;19.05;12.68;;;;;;;;;;5095136;27;20134;-68
2023/06/20 02:42:01;;;;;;;19.15;13.68;;;;;;;;;;5115220;27;20095;-68
2023/06/20 02:44:27;;;;;;;19.30;13.48;;;;;;;;;;5133568;27;20046;-67
2023/06/20 02:47:09;;;;;;;19.10;12.20;;;;;;;;;;5116408;27;20510;-68
2023/06/20 02:49:40;;;;;;;15.90;11.27;;;;;;;;;;5131786;27;20043;-68
2023/06/20 02:52:13;;;;;;;17.55;11.77;;;;;;;;;;5132729;27;20073;-68
2023/06/20 02:54:39;;;;;;;;;;;;;;;;;;5113457;27;20177;-68
2023/06/20 02:57:11;;;;;;;20.02;11.00;;;;;;;;;;5123214;27;20002;-68
2023/06/20 02:59:39;;;;;;;13.00;10.65;;;;;;;;;;5126584;27;20087;-68
2023/06/20 03:02:06;;;;;;;16.92;10.68;;;;;;;;;;5127121;27;20082;-68
2023/06/20 03:04:33;;;;;;;17.45;10.45;;;;;;;;;;5144146;27;20105;-68
2023/06/20 03:07:01;;;;;;;22.88;11.60;;;;;;;;;;5104153;27;20546;-68
2023/06/20 03:09:29;;;;;;;14.13;9.43;;;;;;;;;;5139917;27;20135;-68
2023/06/20 03:11:55;;;;;;;15.60;9.38;;;;;;;;;;5125460;27;20081;-68
2023/06/20 03:14:21;;;;;;;16.48;10.73;;;;;;;;;;5114217;27;20054;-68
2023/06/20 03:16:47;;;;;;;15.23;9.70;;;;;;;;;;5122279;27;20100;-68
2023/06/20 03:19:13;;;;;;;14.75;9.32;;;;;;;;;;5121820;27;20043;-68
2023/06/20 03:21:40;;;;;;;16.63;9.20;;;;;;;;;;5145114;27;20551;-68
2023/06/20 03:24:06;;;;;;;14.00;9.77;;;;;;;;;;5134337;27;20061;-68
2023/06/20 03:26:42;;;;;;;16.73;9.27;;;;;;;;;;5133816;27;20401;-68
2023/06/20 03:29:09;;;;;;;12.43;8.77;;;;;;;;;;5130235;27;20055;-68
2023/06/20 03:31:35;;;;;;;16.92;9.27;;;;;;;;;;5117064;27;20347;-68
2023/06/20 03:34:01;;;;;;;13.70;8.45;;;;;;;;;;5130431;27;20142;-68
2023/06/20 03:36:27;;;;;;;15.25;8.25;;;;;;;;;;5113230;27;20156;-68
2023/06/20 03:38:54;;;;;;;10.65;7.55;;;;;;;;;;5133530;27;20472;-68
2023/06/20 03:41:20;;;;;;;12.55;7.47;;;;;;;;;;5129886;27;20121;-68
2023/06/20 03:43:46;;;;;;;12.77;8.38;;;;;;;;;;5110877;27;20151;-68
2023/06/20 03:46:12;;;;;;;12.70;7.80;;;;;;;;;;5133243;27;20047;-68
2023/06/20 03:48:38;;;;;;;13.95;7.53;;;;;;;;;;5131119;27;20077;-68
2023/06/20 03:51:06;;;;;;;11.20;7.05;;;;;;;;;;5111514;27;20424;-68
2023/06/20 03:53:32;;;;;;;13.45;7.43;;;;;;;;;;5131857;27;20043;-68
2023/06/20 03:55:59;;;;;;;12.05;7.57;;;;;;;;;;5130995;27;20050;-68
2023/06/20 03:58:25;;;;;;;11.25;7.30;;;;;;;;;;5129017;27;20165;-68
2023/06/20 04:00:51;;;;;;;12.52;7.70;;;;;;;;;;5114765;27;20041;-68
2023/06/20 04:03:17;;;;;;;15.98;8.05;;;;;;;;;;5115634;27;20067;-68
2023/06/20 04:05:44;;;;;;;14.10;7.93;;;;;;;;;;5134603;27;20459;-68
2023/06/20 04:08:10;;;;;;;12.65;7.50;;;;;;;;;;5145922;27;20062;-68
2023/06/20 04:10:37;;;;;;;10.82;5.97;;;;;;;;;;5140229;27;20046;-68
2023/06/20 04:13:03;;;;;;;8.93;6.05;;;;;;;;;;5130841;27;20089;-68
2023/06/20 04:15:30;;;;;;;13.27;6.90;;;;;;;;;;5112714;27;20061;-68
2023/06/20 04:17:56;;;;;;;12.02;7.20;;;;;;;;;;5133437;27;20043;-68
2023/06/20 04:20:22;;;;;;;10.93;6.13;;;;;;;;;;5116041;27;20061;-68
2023/06/20 04:22:48;;;;;;;14.35;7.40;;;;;;;;;;5128823;27;20039;-68
2023/06/20 04:25:16;;;;;;;15.10;7.60;;;;;;;;;;5115393;27;20134;-68
2023/06/20 04:27:43;;;;;;;18.23;7.00;;;;;;;;;;5119164;27;20146;-68
2023/06/20 04:30:09;;;;;;;12.50;7.05;;;;;;;;;;5125803;27;20055;-68
2023/06/20 04:32:37;;;;;;;10.35;6.93;;;;;;;;;;5117003;27;20047;-67
2023/06/20 04:35:04;;;;;;;12.15;7.78;;;;;;;;;;5118451;27;20059;-68
2023/06/20 04:37:30;;;;;;;11.95;7.40;;;;;;;;;;5124074;27;20118;-67
2023/06/20 04:40:00;;;;;;;14.10;7.20;;;;;;;;;;5120351;27;20138;-68
2023/06/20 04:42:26;;;;;;;11.35;6.65;;;;;;;;;;5096333;28;20058;-67
2023/06/20 04:44:52;;;;;;;13.77;7.55;;;;;;;;;;5111625;27;20031;-67
2023/06/20 04:47:18;;;;;;;11.93;7.68;;;;;;;;;;5113480;27;20335;-68
2023/06/20 04:49:44;;;;;;;11.05;7.28;;;;;;;;;;5119534;27;20127;-67
2023/06/20 04:52:11;;;;;;;12.32;7.63;;;;;;;;;;5119195;27;20420;-67
2023/06/20 04:54:37;;;;;;;13.75;7.68;;;;;;;;;;5102668;28;20091;-67
2023/06/20 04:57:03;;;;;;;13.02;7.60;;;;;;;;;;5117200;27;20317;-67
2023/06/20 04:59:29;;;;;;;12.55;7.43;;;;;;;;;;5128814;27;20035;-66
2023/06/20 05:01:55;;;;;;;15.90;8.40;;;;;;;;;;5129810;27;20129;-68
2023/06/20 05:04:22;;;;;;;12.45;7.97;;;;;;;;;;5126573;27;20502;-68
2023/06/20 05:06:48;;;;;;;11.75;6.60;;;;;;;;;;5129824;27;20059;-68
2023/06/20 05:09:14;;;;;;;10.65;7.82;;;;;;;;;;5127594;27;20816;-68
2023/06/20 05:11:41;;;;;;;13.23;8.00;;;;;;;;;;5135076;27;20049;-68
2023/06/20 05:14:07;;;;;;;13.70;7.97;;;;;;;;;;5125179;27;20035;-67
2023/06/20 05:16:33;;;;;;;23.25;7.88;;;;;;;;;;5121932;27;20042;-68
2023/06/20 05:18:59;;;;;;;12.45;7.68;;;;;;;;;;5134767;27;20047;-68
2023/06/20 05:21:25;;;;;;;11.02;7.55;;;;;;;;;;5122431;27;20040;-67
2023/06/20 05:23:51;;;;;;;17.13;8.05;;;;;;;;;;5116649;28;20525;-67
2023/06/20 05:26:18;;;;;;;12.82;7.60;;;;;;;;;;5121160;28;20063;-68
2023/06/20 05:28:44;;;;;;;14.70;8.25;;;;;;;;;;5135735;27;20047;-67
2023/06/20 05:31:10;;;;;;;13.13;8.00;;;;;;;;;;5139183;27;20169;-68
2023/06/20 05:33:36;;;;;;;11.80;8.23;;;;;;;;;;5141019;27;20122;-68
2023/06/20 05:36:04;;;;;;;13.38;7.18;;;;;;;;;;5123436;27;20415;-68
2023/06/20 05:38:32;;;;;;;13.65;8.35;;;;;;;;;;5139196;27;20039;-68
2023/06/20 05:40:59;;;;;;;13.23;8.27;;;;;;;;;;5123811;27;20050;-68
2023/06/20 05:43:25;;;;;;;12.18;8.25;;;;;;;;;;5123104;27;20050;-68
2023/06/20 05:45:52;;;;;;;11.82;7.82;;;;;;;;;;5122481;28;20085;-67
2023/06/20 05:48:18;;;;;;;11.98;7.45;;;;;;;;;;5116809;27;20508;-68
2023/06/20 05:50:44;;;;;;;12.38;8.07;;;;;;;;;;5134959;27;20221;-68
2023/06/20 05:53:10;;;;;;;13.60;8.68;;;;;;;;;;5135549;27;20039;-71
2023/06/20 05:55:39;;;;;;;13.90;8.40;;;;;;;;;;5137249;27;20050;-71
2023/06/20 05:58:07;;;;;;;10.93;7.75;;;;;;;;;;5134587;27;20066;-71
2023/06/20 06:00:33;;;;;;;11.85;8.50;;;;;;;;;;5156536;27;20090;-71
2023/06/20 06:02:59;;;;;;;13.43;8.75;;;;;;;;;;5144332;27;20071;-69
2023/06/20 06:05:26;;;;;;;16.38;8.57;;;;;;;;;;5156409;27;20379;-70
2023/06/20 06:07:52;;;;;;;14.57;7.88;;;;;;;;;;5130309;27;20055;-69
2023/06/20 06:10:18;;;;;;;12.93;8.13;;;;;;;;;;5133325;27;20042;-71
2023/06/20 06:12:45;;;;;;;12.80;8.52;;;;;;;;;;5136765;27;20091;-70
2023/06/20 06:15:13;;;;;;;15.35;8.35;;;;;;;;;;5137873;27;20411;-71
2023/06/20 06:17:39;;;;;;;16.27;8.98;;;;;;;;;;5150850;27;20047;-71
2023/06/20 06:20:10;;;;;;;22.17;9.20;;;;;;;;;;5130608;27;20095;-70
2023/06/20 06:22:36;;;;;;;14.20;9.00;;;;;;;;;;5116833;27;20517;-71
2023/06/20 06:25:02;;;;;;;11.18;7.72;;;;;;;;;;5121348;27;20110;-71
2023/06/20 06:27:28;;;;;;;14.65;8.43;;;;;;;;;;5126646;27;20068;-71
2023/06/20 06:29:54;;;;;;;14.10;7.93;;;;;;;;;;5122697;27;20489;-71
2023/06/20 06:32:21;;;;;;;15.18;9.60;;;;;;;;;;5151563;27;20031;-71
2023/06/20 06:34:49;;;;;;;17.17;9.18;;;;;;;;;;5134941;27;20111;-71
2023/06/20 06:37:15;;;;;;;11.60;8.48;;;;;;;;;;5154849;27;20050;-71
2023/06/20 06:39:42;;;;;;;12.23;7.72;;;;;;;;;;5141344;27;20514;-71
2023/06/20 06:42:08;;;;;;;18.77;8.75;;;;;;;;;;5121664;27;20046;-71
2023/06/20 06:44:34;;;;;;;12.38;8.38;;;;;;;;;;5147959;27;20125;-71
2023/06/20 06:47:01;;;;;;;11.23;8.23;;;;;;;;;;5154973;27;20038;-71
2023/06/20 06:49:27;;;;;;;11.10;7.68;;;;;;;;;;5137006;27;20043;-71
2023/06/20 06:51:54;;;;;;;13.98;8.05;;;;;;;;;;5149656;27;20043;-71
2023/06/20 06:54:20;;;;;;;10.18;8.32;;;;;;;;;;5154792;27;20042;-71
2023/06/20 06:56:46;;;;;;;11.98;8.77;;;;;;;;;;5135588;27;20047;-71
2023/06/20 06:59:12;;;;;;;17.25;8.48;;;;;;;;;;5128262;27;20433;-71
2023/06/20 07:01:39;;;;;;;15.18;8.65;;;;;;;;;;5128341;27;20047;-71
2023/06/20 07:04:05;;;;;;;12.15;8.73;;;;;;;;;;5133930;27;20054;-71
2023/06/20 07:06:31;;;;;;;11.80;8.15;;;;;;;;;;5143550;27;20466;-71
2023/06/20 07:08:57;;;;;;;12.57;8.48;;;;;;;;;;5129881;27;20038;-71
2023/06/20 07:11:24;;;;;;;12.00;7.85;;;;;;;;;;5155040;27;20123;-71
2023/06/20 07:13:51;;;;;;;12.68;8.93;;;;;;;;;;5135585;27;20039;-71
2023/06/20 07:16:17;;;;;;;14.80;9.13;;;;;;;;;;5134954;27;20051;-68
2023/06/20 07:18:43;;;;;;;14.30;9.85;;;;;;;;;;5151070;27;20081;-68
2023/06/20 07:21:09;;;;;;;11.85;9.48;;;;;;;;;;5151895;27;20046;-68
2023/06/20 07:23:35;;;;;;;13.13;9.45;;;;;;;;;;5136368;27;20054;-69
2023/06/20 07:26:01;;;;;;;12.20;8.88;;;;;;;;;;5154622;27;20534;-68
2023/06/20 07:28:28;;;;;;;13.77;9.25;;;;;;;;;;5114470;27;20383;-68
2023/06/20 07:30:55;;;;;;;15.98;9.10;;;;;;;;;;5130305;27;20385;-68
2023/06/20 07:33:21;;;;;;;14.10;10.13;;;;;;;;;;5115643;27;20447;-68
2023/06/20 07:35:47;;;;;;;15.65;10.50;;;;;;;;;;5144995;27;20045;-69
2023/06/20 07:38:13;;;;;;;12.63;10.05;;;;;;;;;;5144772;27;20394;-69
2023/06/20 07:40:40;;;;;;;16.25;11.77;;;;;;;;;;5153471;27;20119;-69
2023/06/20 07:43:07;;;;;;;16.08;10.38;;;;;;;;;;5135184;27;20350;-69
2023/06/20 07:45:33;;;;;;;15.02;10.00;;;;;;;;;;5135964;27;20034;-69
2023/06/20 07:48:00;;;;;;;13.93;10.77;;;;;;;;;;5135414;27;20561;-69
2023/06/20 07:50:26;;;;;;;13.82;9.68;;;;;;;;;;5133746;27;20133;-69
2023/06/20 07:52:52;;;;;;;15.65;9.85;;;;;;;;;;5148329;27;20478;-69
2023/06/20 07:55:18;;;;;;;15.48;10.82;;;;;;;;;;5135738;27;20046;-69
2023/06/20 07:57:44;;;;;;;18.77;10.95;;;;;;;;;;5134974;27;20394;-69
2023/06/20 08:00:11;;;;;;;14.65;11.10;;;;;;;;;;5134886;27;20042;-68
2023/06/20 08:02:38;;;;;;;16.52;10.45;;;;;;;;;;5142740;27;20057;-69
2023/06/20 08:05:04;;;;;;;13.23;10.15;;;;;;;;;;5149206;27;20061;-69
2023/06/20 08:07:31;;;;;;;18.40;11.05;;;;;;;;;;5132207;27;20050;-69
2023/06/20 08:09:57;;;;;;;16.60;11.55;;;;;;;;;;5133023;27;20074;-69
2023/06/20 08:12:23;;;;;;;16.38;11.57;;;;;;;;;;5151719;27;20046;-69
2023/06/20 08:14:52;;;;;;;15.70;11.18;;;;;;;;;;5153932;27;20359;-69
2023/06/20 08:17:19;;;;;;;13.95;11.07;;;;;;;;;;5152887;27;20074;-69
2023/06/20 08:19:46;;;;;;;14.57;11.05;;;;;;;;;;5153669;27;20072;-69
2023/06/20 08:22:12;;;;;;;16.67;11.60;;;;;;;;;;5127409;27;20432;-67
2023/06/20 08:24:38;;;;;;;15.63;10.82;;;;;;;;;;5152678;27;20046;-67
2023/06/20 08:27:04;;;;;;;18.52;11.65;;;;;;;;;;5133854;27;20083;-68
2023/06/20 08:29:31;;;;;;;14.27;11.73;;;;;;;;;;5132889;27;20054;-67
2023/06/20 08:31:58;;;;;;;15.82;11.88;;;;;;;;;;5152805;27;20452;-67
2023/06/20 08:34:24;;;;;;;15.23;11.40;;;;;;;;;;5151558;27;20416;-67
2023/06/20 08:36:50;;;;;;;17.25;12.38;;;;;;;;;;5153592;27;20066;-67
2023/06/20 08:39:18;;;;;;;15.43;10.35;;;;;;;;;;5151574;27;20512;-67
2023/06/20 08:41:44;;;;;;;17.65;11.77;;;;;;;;;;5138821;27;20046;-67
2023/06/20 08:44:11;;;;;;;15.57;11.98;;;;;;;;;;5152559;27;20577;-68
2023/06/20 08:46:37;;;;;;;15.18;11.65;;;;;;;;;;5134012;27;20042;-67
2023/06/20 08:49:04;;;;;;;16.23;11.70;;;;;;;;;;5131770;27;20134;-67
2023/06/20 08:51:31;;;;;;;15.80;12.02;;;;;;;;;;5146641;27;20512;-67
2023/06/20 08:53:58;;;;;;;17.23;11.48;;;;;;;;;;5138293;27;20484;-67
2023/06/20 08:56:25;;;;;;;18.20;11.98;;;;;;;;;;5133471;27;20046;-67
2023/06/20 08:58:51;;;;;;;19.10;11.48;;;;;;;;;;5132825;27;20062;-67
2023/06/20 09:01:17;;;;;;;15.52;12.02;;;;;;;;;;5152270;27;20035;-67
2023/06/20 09:03:44;;;;;;;15.82;12.02;;;;;;;;;;5151692;27;20140;-67
2023/06/20 09:06:11;;;;;;;15.00;11.48;;;;;;;;;;5148717;27;20031;-67
2023/06/20 09:08:37;;;;;;;18.48;11.80;;;;;;;;;;5143892;27;20042;-67
2023/06/20 09:11:07;;;;;;;12.52;10.75;;;;;;;;;;5151885;27;20045;-67
2023/06/20 09:13:33;;;;;;;15.07;11.20;;;;;;;;;;5119716;27;20042;-67
2023/06/20 09:16:09;;;;;;;15.27;11.52;;;;;;;;;;5125616;27;20047;-67
2023/06/20 09:18:37;;;;;;;15.45;11.80;;;;;;;;;;5120008;27;20076;-67
2023/06/20 09:21:03;;;;;;;17.48;10.70;;;;;;;;;;5113851;27;20432;-67
2023/06/20 09:23:33;;;;;;;13.98;11.40;;;;;;;;;;5144428;27;20046;-67
2023/06/20 09:26:16;;;;;;;15.30;11.75;;;;;;;;;;5137632;27;20145;-67
2023/06/20 09:28:42;;;;;;;18.05;10.70;;;;;;;;;;5119494;27;20098;-67
2023/06/20 09:31:09;;;;;;;14.27;11.38;;;;;;;;;;5136256;27;20482;-67
2023/06/20 09:33:38;;;;;;;12.23;10.55;;;;;;;;;;5128492;27;20043;-67
2023/06/20 09:36:14;;;;;;;16.45;11.35;;;;;;;;;;5132599;27;20038;-67
2023/06/20 09:38:44;;;;;;;14.75;11.88;;;;;;;;;;5134872;27;20057;-67
2023/06/20 09:41:15;;;;;;;16.80;11.00;;;;;;;;;;5119472;27;20071;-67
2023/06/20 09:43:41;;;;;;;16.13;10.60;;;;;;;;;;5134000;27;20051;-67
2023/06/20 09:46:08;;;;;;;14.80;11.50;;;;;;;;;;5129163;27;20111;-68
2023/06/20 09:48:34;;;;;;;15.13;11.13;;;;;;;;;;5119668;27;20131;-67
2023/06/20 09:51:01;;;;;;;15.13;10.80;;;;;;;;;;5123896;27;20509;-67
2023/06/20 09:53:30;;;;;;;13.32;10.07;;;;;;;;;;5121233;27;20050;-67
2023/06/20 09:55:57;;;;;;;15.80;10.95;;;;;;;;;;5133084;27;20130;-67
2023/06/20 09:58:25;;;;;;;11.18;10.00;;;;;;;;;;5119836;27;20035;-67
2023/06/20 10:00:51;;;;;;;11.82;10.05;;;;;;;;;;5118328;27;20051;-67
2023/06/20 10:03:17;;;;;;;11.45;9.73;;;;;;;;;;5118862;27;20040;-68
2023/06/20 10:05:46;;;;;;;15.63;10.13;;;;;;;;;;5122986;27;20035;-68
2023/06/20 10:08:12;;;;;;;12.75;8.77;;;;;;;;;;5117746;27;20044;-68
2023/06/20 10:10:38;;;;;;;13.13;9.13;;;;;;;;;;5124324;27;20050;-67
2023/06/20 10:13:05;;;;;;;10.57;8.52;;;;;;;;;;5125251;27;20743;-67
2023/06/20 10:15:31;;;;;;;10.15;8.05;;;;;;;;;;5121525;27;20088;-67
2023/06/20 10:17:57;;;;;;;12.10;8.27;;;;;;;;;;5125450;27;20084;-68
2023/06/20 10:20:33;;;;;;;12.43;8.77;;;;;;;;;;5124803;27;20440;-68
2023/06/20 10:23:04;;;;;;;14.25;8.85;;;;;;;;;;5134145;27;20085;-68
2023/06/20 10:25:31;;;;;;;13.05;7.60;;;;;;;;;;5127939;27;20138;-68
2023/06/20 10:27:58;;;;;;;10.23;8.32;;;;;;;;;;5113636;27;20087;-68
2023/06/20 10:30:39;;;;;;;11.88;8.63;;;;;;;;;;5133178;27;20489;-68
2023/06/20 10:33:07;;;;;;;11.52;7.32;;;;;;;;;;5128991;27;20048;-68
2023/06/20 10:35:34;;;;;;;9.52;7.82;;;;;;;;;;5133475;27;20051;-67
2023/06/20 10:38:08;;;;;;;11.75;7.90;;;;;;;;;;5112681;27;20042;-68
2023/06/20 10:40:35;;;;;;;11.57;7.65;;;;;;;;;;5131886;27;20071;-68
2023/06/20 10:43:05;;;;;;;10.90;7.63;;;;;;;;;;5132331;27;20058;-68
2023/06/20 10:45:31;;;;;;;10.10;8.23;;;;;;;;;;5132952;27;20032;-68
2023/06/20 10:47:58;;;;;;;14.65;8.13;;;;;;;;;;5130810;27;20125;-68
2023/06/20 10:50:24;;;;;;;12.88;8.32;;;;;;;;;;5121673;27;20133;-68
2023/06/20 10:52:50;;;;;;;8.90;7.13;;;;;;;;;;5134017;27;20043;-68
2023/06/20 10:55:16;;;;;;;10.98;7.18;;;;;;;;;;5133398;27;20496;-68
2023/06/20 10:57:46;;;;;;;8.25;6.40;;;;;;;;;;5133306;27;20063;-65
2023/06/20 11:00:17;;;;;;;11.20;6.80;;;;;;;;;;5131022;27;20039;-65
2023/06/20 11:02:44;;;;;;;10.25;6.63;;;;;;;;;;5128477;27;20532;-65
2023/06/20 11:05:11;;;;;;;8.70;5.60;;;;;;;;;;5127134;27;20035;-65
2023/06/20 11:07:55;;;;;;;6.20;4.35;;;;;;;;;;5133508;27;20118;-66
2023/06/20 11:10:26;;;;;;;5.97;4.20;;;;;;;;;;5127160;27;20118;-66
2023/06/20 11:12:52;;;;;;;5.53;4.60;;;;;;;;;;5132316;27;20538;-66
2023/06/20 11:15:20;;;;;;;6.32;4.25;;;;;;;;;;5130519;27;20135;-65
2023/06/20 11:17:46;;;;;;;6.55;4.00;;;;;;;;;;5131521;27;20044;-67
2023/06/20 11:20:12;;;;;;;5.82;4.18;;;;;;;;;;5132353;27;20471;-66
2023/06/20 11:22:38;;;;;;;6.32;4.35;;;;;;;;;;5130710;27;20057;-66
2023/06/20 11:25:07;;;;;;;7.22;4.13;;;;;;;;;;5119464;27;20051;-66
2023/06/20 11:27:34;;;;;;;5.90;4.00;;;;;;;;;;5115428;27;20106;-66
2023/06/20 11:30:00;;;;;;;7.22;4.22;;;;;;;;;;5121247;27;20051;-66
2023/06/20 11:32:26;;;;;;;6.30;4.60;;;;;;;;;;5130711;27;20050;-66
2023/06/20 11:34:56;;;;;;;6.25;4.63;;;;;;;;;;5126270;27;20088;-66
2023/06/20 11:37:22;;;;;;;8.30;5.50;;;;;;;;;;5122719;27;20506;-66
2023/06/20 11:39:49;;;;;;;8.85;4.40;;;;;;;;;;5109531;28;20491;-66
2023/06/20 11:42:18;;;;;;;6.72;5.28;;;;;;;;;;5131149;27;20468;-66
2023/06/20 11:44:45;;;;;;;7.32;4.95;;;;;;;;;;5129683;27;20035;-66
2023/06/20 11:47:11;;;;;;;6.53;4.68;;;;;;;;;;5119542;27;20042;-66
2023/06/20 11:49:40;;;;;;;6.63;5.20;;;;;;;;;;5126074;27;20054;-66
2023/06/20 11:52:07;;;;;;;8.73;4.82;;;;;;;;;;5133404;27;20047;-66
2023/06/20 11:54:49;;;;;;;6.82;4.45;;;;;;;;;;5133010;27;20046;-66
2023/06/20 11:57:26;;;;;;;7.20;4.90;;;;;;;;;;5121833;27;20047;-66
2023/06/20 11:59:53;;;;;;;6.40;4.03;;;;;;;;;;5127283;27;20393;-66
2023/06/20 12:02:19;;;;;;;9.63;4.15;;;;;;;;;;5117629;27;20479;-66
2023/06/20 12:04:56;;;;;;;5.97;3.80;;;;;;;;;;5132311;27;20406;-67
2023/06/20 12:07:22;;;;;;;5.45;3.53;;;;;;;;;;5108686;27;20035;-67
2023/06/20 12:09:49;;;;;;;7.15;3.80;;;;;;;;;;5103318;27;20393;-67
2023/06/20 12:12:15;;;;;;;5.95;3.72;;;;;;;;;;5115423;27;20426;-67
2023/06/20 12:14:42;;;;;;;6.97;4.38;;;;;;;;;;5120927;27;20055;-68
2023/06/20 12:17:08;;;;;;;6.38;3.58;;;;;;;;;;5121913;27;20043;-68
2023/06/20 12:19:34;;;;;;;5.60;3.30;;;;;;;;;;5127510;27;20477;-68
2023/06/20 12:22:00;;;;;;;6.60;4.28;;;;;;;;;;5133126;27;20043;-68
2023/06/20 12:24:29;;;;;;;7.30;4.10;;;;;;;;;;5130965;27;20055;-67
2023/06/20 12:26:56;;;;;;;7.40;3.95;;;;;;;;;;5117909;27;20042;-67
2023/06/20 12:29:22;;;;;;;6.32;4.93;;;;;;;;;;5125174;27;20035;-67
2023/06/20 12:31:48;;;;;;;8.98;4.07;;;;;;;;;;5152609;27;20379;-67
2023/06/20 12:34:14;;;;;;;5.07;3.85;;;;;;;;;;5134903;27;20497;-68
2023/06/20 12:36:40;;;;;;;8.93;4.35;;;;;;;;;;5152266;27;20049;-67
2023/06/20 12:39:08;;;;;;;5.97;4.13;;;;;;;;;;5134048;27;20050;-69
2023/06/20 12:41:34;;;;;;;7.57;4.53;;;;;;;;;;5153535;27;20045;-66
2023/06/20 12:44:04;;;;;;;5.95;4.53;;;;;;;;;;5145956;27;20037;-67
2023/06/20 12:46:30;;;;;;;8.10;4.75;;;;;;;;;;5142184;27;20030;-67
2023/06/20 12:48:56;;;;;;;6.97;5.40;;;;;;;;;;5137561;27;20133;-67
2023/06/20 12:51:23;;;;;;;7.25;5.53;;;;;;;;;;5122157;28;20050;-67
2023/06/20 12:53:50;;;;;;;7.50;4.57;;;;;;;;;;5118709;27;20342;-67
2023/06/20 12:56:17;;;;;;;6.95;5.38;;;;;;;;;;5117754;27;20053;-67
2023/06/20 12:58:43;;;;;;;7.15;5.18;;;;;;;;;;5142464;27;20050;-67
2023/06/20 13:01:09;;;;;;;7.70;5.80;;;;;;;;;;5141217;27;20046;-67
2023/06/20 13:03:35;;;;;;;6.03;4.78;;;;;;;;;;5130850;27;20050;-67
2023/06/20 13:06:02;;;;;;;5.45;4.78;;;;;;;;;;5150238;27;20043;-67
2023/06/20 13:08:28;;;;;;;7.38;5.80;;;;;;;;;;5126397;27;20073;-68
2023/06/20 13:10:54;;;;;;;43.35;13.48;;;;;;;;;;5142802;27;20073;-67
2023/06/20 13:13:20;;;;;;;9.40;5.13;;;;;;;;;;5146387;27;20135;-67
2023/06/20 13:15:46;;;;;;;6.18;4.80;;;;;;;;;;5148200;27;20039;-67
2023/06/20 13:18:13;;;;;;;6.43;4.80;;;;;;;;;;5142874;27;20067;-67
2023/06/20 13:20:39;;;;;;;6.35;4.55;;;;;;;;;;5126660;27;20579;-67
2023/06/20 13:23:05;;;;;;;6.90;4.93;;;;;;;;;;5154475;27;20045;-67
2023/06/20 13:25:31;;;;;;;6.88;5.35;;;;;;;;;;5121201;27;20042;-67
2023/06/20 13:27:57;;;;;;;7.97;5.15;;;;;;;;;;5142255;27;20421;-67
2023/06/20 13:30:24;;;;;;;6.03;5.18;;;;;;;;;;5124470;27;20054;-66
2023/06/20 13:32:50;;;;;;;6.43;5.20;;;;;;;;;;5126049;27;20053;-67
2023/06/20 13:35:19;;;;;;;6.72;5.38;;;;;;;;;;5137317;27;20385;-68
2023/06/20 13:37:45;;;;;;;7.68;5.30;;;;;;;;;;5138525;27;20676;-70
2023/06/20 13:40:12;;;;;;;7.03;5.20;;;;;;;;;;5156794;27;20038;-70
2023/06/20 13:42:42;;;;;;;6.68;5.55;;;;;;;;;;5138515;27;20382;-70
2023/06/20 13:45:12;;;;;;;8.27;5.43;;;;;;;;;;5121889;27;20039;-70
2023/06/20 13:47:40;;;;;;;6.55;5.28;;;;;;;;;;5139639;27;20058;-70
2023/06/20 13:50:06;;;;;;;9.23;5.80;;;;;;;;;;5157345;27;20130;-70
2023/06/20 13:52:33;;;;;;;9.25;5.10;;;;;;;;;;5149717;27;20039;-70
2023/06/20 13:55:00;;;;;;;6.30;4.95;;;;;;;;;;5138279;27;20038;-70
2023/06/20 13:57:26;;;;;;;5.40;4.72;;;;;;;;;;5153135;27;20513;-70
2023/06/20 13:59:53;;;;;;;7.20;5.40;;;;;;;;;;5156466;27;20130;-70
2023/06/20 14:02:19;;;;;;;7.43;4.95;;;;;;;;;;5136690;27;20039;-70
2023/06/20 14:04:45;;;;;;;8.68;4.70;;;;;;;;;;5134296;27;20078;-70
2023/06/20 14:07:11;;;;;;;7.55;4.90;;;;;;;;;;5138017;27;20074;-70
2023/06/20 14:09:38;;;;;;;7.68;4.95;;;;;;;;;;5155300;27;20508;-70
2023/06/20 14:12:04;;;;;;;6.07;5.18;;;;;;;;;;5137233;27;20173;-70
2023/06/20 14:14:31;;;;;;;10.70;5.20;;;;;;;;;;5138036;27;20042;-70
2023/06/20 14:16:57;;;;;;;5.90;4.90;;;;;;;;;;5136649;27;20047;-70
2023/06/20 14:19:23;;;;;;;7.70;5.10;;;;;;;;;;5147069;27;20038;-70
2023/06/20 14:21:50;;;;;;;9.02;5.05;;;;;;;;;;5130236;27;20079;-70
2023/06/20 14:24:16;;;;;;;7.38;5.40;;;;;;;;;;5129146;27;20042;-70
2023/06/20 14:26:42;;;;;;;9.27;5.75;;;;;;;;;;5153027;27;20405;-70
2023/06/20 14:29:09;;;;;;;8.32;5.05;;;;;;;;;;5149959;27;20066;-70